sensor_id;sensor_type;location;lat;lon;timestamp;P1;durP1;ratioP1;P2;durP2;ratioP2
4355;SDS011;64374;51.482;7.408;2023-09-18T00:02:37;9.75;;;5.57;;
4355;SDS011;64374;51.482;7.408;2023-09-18T00:05:26;7.10;;;5.67;;
4355;SDS011;64374;51.482;7.408;2023-09-18T00:08:14;7.60;;;5.75;;
4355;SDS011;64374;51.482;7.408;2023-09-18T00:11:01;6.82;;;5.55;;
4355;SDS011;64374;51.482;7.408;2023-09-18T00:13:47;8.20;;;5.80;;
4355;SDS011;64374;51.482;7.408;2023-09-18T00:16:34;6.90;;;6.10;;
4355;SDS011;64374;51.482;7.408;2023-09-18T00:19:40;7.45;;;5.30;;
4355;SDS011;64374;51.482;7.408;2023-09-18T00:22:28;8.07;;;6.07;;
4355;SDS011;64374;51.482;7.408;2023-09-18T00:24:57;7.67;;;5.80;;
4355;SDS011;64374;51.482;7.408;2023-09-18T00:27:25;7.65;;;5.50;;
4355;SDS011;64374;51.482;7.408;2023-09-18T00:30:06;9.25;;;6.20;;
4355;SDS011;64374;51.482;7.408;2023-09-18T00:32:35;6.00;;;5.30;;
4355;SDS011;64374;51.482;7.408;2023-09-18T00:35:06;8.77;;;5.25;;
4355;SDS011;64374;51.482;7.408;2023-09-18T00:37:39;8.60;;;5.88;;
4355;SDS011;64374;51.482;7.408;2023-09-18T00:40:07;8.57;;;5.68;;
4355;SDS011;64374;51.482;7.408;2023-09-18T00:42:37;6.07;;;5.55;;
4355;SDS011;64374;51.482;7.408;2023-09-18T00:45:05;9.60;;;5.20;;
4355;SDS011;64374;51.482;7.408;2023-09-18T00:47:36;8.15;;;5.80;;
4355;SDS011;64374;51.482;7.408;2023-09-18T00:50:04;7.20;;;5.37;;
4355;SDS011;64374;51.482;7.408;2023-09-18T00:52:37;9.43;;;6.00;;
4355;SDS011;64374;51.482;7.408;2023-09-18T00:55:09;7.88;;;5.55;;
4355;SDS011;64374;51.482;7.408;2023-09-18T00:57:38;9.52;;;5.85;;
4355;SDS011;64374;51.482;7.408;2023-09-18T01:00:06;6.43;;;5.40;;
4355;SDS011;64374;51.482;7.408;2023-09-18T01:02:41;6.73;;;5.23;;
4355;SDS011;64374;51.482;7.408;2023-09-18T01:05:12;8.30;;;5.93;;
4355;SDS011;64374;51.482;7.408;2023-09-18T01:07:44;7.78;;;6.30;;
4355;SDS011;64374;51.482;7.408;2023-09-18T01:10:13;9.87;;;6.17;;
4355;SDS011;64374;51.482;7.408;2023-09-18T01:12:46;6.70;;;5.00;;
4355;SDS011;64374;51.482;7.408;2023-09-18T01:15:22;7.25;;;5.40;;
4355;SDS011;64374;51.482;7.408;2023-09-18T01:17:53;10.52;;;6.72;;
4355;SDS011;64374;51.482;7.408;2023-09-18T01:20:22;7.43;;;5.35;;
4355;SDS011;64374;51.482;7.408;2023-09-18T01:22:53;7.50;;;5.20;;
4355;SDS011;64374;51.482;7.408;2023-09-18T01:25:39;6.35;;;5.00;;
4355;SDS011;64374;51.482;7.408;2023-09-18T01:28:26;7.40;;;4.90;;
4355;SDS011;64374;51.482;7.408;2023-09-18T01:31:12;7.55;;;5.18;;
4355;SDS011;64374;51.482;7.408;2023-09-18T01:33:59;8.82;;;5.00;;
4355;SDS011;64374;51.482;7.408;2023-09-18T01:36:49;6.95;;;5.30;;
4355;SDS011;64374;51.482;7.408;2023-09-18T01:39:37;7.57;;;5.60;;
4355;SDS011;64374;51.482;7.408;2023-09-18T01:42:25;10.23;;;5.50;;
4355;SDS011;64374;51.482;7.408;2023-09-18T01:45:13;8.35;;;5.78;;
4355;SDS011;64374;51.482;7.408;2023-09-18T01:48:00;9.40;;;5.73;;
4355;SDS011;64374;51.482;7.408;2023-09-18T01:50:50;10.63;;;5.88;;
4355;SDS011;64374;51.482;7.408;2023-09-18T01:53:37;8.75;;;5.47;;
4355;SDS011;64374;51.482;7.408;2023-09-18T01:56:25;9.55;;;5.72;;
4355;SDS011;64374;51.482;7.408;2023-09-18T01:59:12;7.40;;;5.70;;
4355;SDS011;64374;51.482;7.408;2023-09-18T02:01:58;7.60;;;5.50;;
4355;SDS011;64374;51.482;7.408;2023-09-18T02:04:47;6.80;;;5.32;;
4355;SDS011;64374;51.482;7.408;2023-09-18T02:07:52;10.07;;;5.47;;
4355;SDS011;64374;51.482;7.408;2023-09-18T02:10:38;8.20;;;5.50;;
4355;SDS011;64374;51.482;7.408;2023-09-18T02:13:29;8.25;;;5.10;;
4355;SDS011;64374;51.482;7.408;2023-09-18T02:16:15;7.03;;;5.00;;
4355;SDS011;64374;51.482;7.408;2023-09-18T02:19:02;8.33;;;5.23;;
4355;SDS011;64374;51.482;7.408;2023-09-18T02:21:49;8.00;;;5.60;;
4355;SDS011;64374;51.482;7.408;2023-09-18T02:24:35;7.63;;;5.10;;
4355;SDS011;64374;51.482;7.408;2023-09-18T02:27:22;8.68;;;5.43;;
4355;SDS011;64374;51.482;7.408;2023-09-18T02:30:10;9.93;;;5.43;;
4355;SDS011;64374;51.482;7.408;2023-09-18T02:32:58;9.15;;;5.53;;
4355;SDS011;64374;51.482;7.408;2023-09-18T02:35:48;8.02;;;5.13;;
4355;SDS011;64374;51.482;7.408;2023-09-18T02:38:36;7.88;;;4.65;;
4355;SDS011;64374;51.482;7.408;2023-09-18T02:41:23;6.85;;;5.30;;
4355;SDS011;64374;51.482;7.408;2023-09-18T02:44:09;8.03;;;5.43;;
4355;SDS011;64374;51.482;7.408;2023-09-18T02:46:57;8.18;;;5.90;;
4355;SDS011;64374;51.482;7.408;2023-09-18T02:49:44;6.35;;;5.10;;
4355;SDS011;64374;51.482;7.408;2023-09-18T02:52:31;7.80;;;5.30;;
4355;SDS011;64374;51.482;7.408;2023-09-18T02:55:19;9.38;;;5.75;;
4355;SDS011;64374;51.482;7.408;2023-09-18T02:58:06;9.73;;;5.80;;
4355;SDS011;64374;51.482;7.408;2023-09-18T03:00:54;9.02;;;5.70;;
4355;SDS011;64374;51.482;7.408;2023-09-18T03:03:44;8.70;;;5.18;;
4355;SDS011;64374;51.482;7.408;2023-09-18T03:06:33;9.65;;;4.72;;
4355;SDS011;64374;51.482;7.408;2023-09-18T03:09:20;8.90;;;4.70;;
4355;SDS011;64374;51.482;7.408;2023-09-18T03:12:07;5.57;;;4.15;;
4355;SDS011;64374;51.482;7.408;2023-09-18T03:14:54;6.30;;;4.30;;
4355;SDS011;64374;51.482;7.408;2023-09-18T03:17:40;7.65;;;4.10;;
4355;SDS011;64374;51.482;7.408;2023-09-18T03:20:29;6.97;;;4.40;;
4355;SDS011;64374;51.482;7.408;2023-09-18T03:23:16;7.35;;;4.10;;
4355;SDS011;64374;51.482;7.408;2023-09-18T03:26:03;7.00;;;4.45;;
4355;SDS011;64374;51.482;7.408;2023-09-18T03:28:50;7.17;;;3.90;;
4355;SDS011;64374;51.482;7.408;2023-09-18T03:31:37;5.18;;;3.95;;
4355;SDS011;64374;51.482;7.408;2023-09-18T03:34:25;9.88;;;4.20;;
4355;SDS011;64374;51.482;7.408;2023-09-18T03:37:13;6.80;;;4.63;;
4355;SDS011;64374;51.482;7.408;2023-09-18T03:40:00;6.23;;;4.50;;
4355;SDS011;64374;51.482;7.408;2023-09-18T03:42:47;9.15;;;4.40;;
4355;SDS011;64374;51.482;7.408;2023-09-18T03:45:34;5.13;;;4.15;;
4355;SDS011;64374;51.482;7.408;2023-09-18T03:48:22;8.30;;;4.10;;
4355;SDS011;64374;51.482;7.408;2023-09-18T03:51:09;8.60;;;4.03;;
4355;SDS011;64374;51.482;7.408;2023-09-18T03:53:58;7.70;;;3.90;;
4355;SDS011;64374;51.482;7.408;2023-09-18T03:56:45;7.00;;;4.03;;
4355;SDS011;64374;51.482;7.408;2023-09-18T03:59:32;6.15;;;4.05;;
4355;SDS011;64374;51.482;7.408;2023-09-18T04:02:20;9.10;;;3.90;;
4355;SDS011;64374;51.482;7.408;2023-09-18T04:05:09;7.15;;;3.78;;
4355;SDS011;64374;51.482;7.408;2023-09-18T04:07:55;5.95;;;4.20;;
4355;SDS011;64374;51.482;7.408;2023-09-18T04:10:44;8.88;;;3.80;;
4355;SDS011;64374;51.482;7.408;2023-09-18T04:13:31;10.57;;;4.40;;
4355;SDS011;64374;51.482;7.408;2023-09-18T04:16:19;7.03;;;3.55;;
4355;SDS011;64374;51.482;7.408;2023-09-18T04:19:06;8.68;;;4.30;;
4355;SDS011;64374;51.482;7.408;2023-09-18T04:21:54;10.23;;;4.40;;
4355;SDS011;64374;51.482;7.408;2023-09-18T04:24:41;7.65;;;4.38;;
4355;SDS011;64374;51.482;7.408;2023-09-18T04:27:29;11.13;;;4.20;;
4355;SDS011;64374;51.482;7.408;2023-09-18T04:30:16;8.02;;;4.30;;
4355;SDS011;64374;51.482;7.408;2023-09-18T04:33:05;11.97;;;4.30;;
4355;SDS011;64374;51.482;7.408;2023-09-18T04:35:34;10.75;;;4.40;;
4355;SDS011;64374;51.482;7.408;2023-09-18T04:38:03;10.07;;;4.80;;
4355;SDS011;64374;51.482;7.408;2023-09-18T04:40:31;15.57;;;4.60;;
4355;SDS011;64374;51.482;7.408;2023-09-18T04:43:01;11.83;;;4.07;;
4355;SDS011;64374;51.482;7.408;2023-09-18T04:45:30;9.90;;;4.47;;
4355;SDS011;64374;51.482;7.408;2023-09-18T04:47:59;9.60;;;4.30;;
4355;SDS011;64374;51.482;7.408;2023-09-18T04:50:27;9.55;;;4.10;;
4355;SDS011;64374;51.482;7.408;2023-09-18T04:52:56;6.70;;;4.30;;
4355;SDS011;64374;51.482;7.408;2023-09-18T04:55:25;9.93;;;4.80;;
4355;SDS011;64374;51.482;7.408;2023-09-18T04:57:53;8.65;;;4.18;;
4355;SDS011;64374;51.482;7.408;2023-09-18T05:00:27;10.25;;;4.70;;
4355;SDS011;64374;51.482;7.408;2023-09-18T05:02:57;12.60;;;4.50;;
4355;SDS011;64374;51.482;7.408;2023-09-18T05:05:28;12.07;;;4.10;;
4355;SDS011;64374;51.482;7.408;2023-09-18T05:07:56;12.35;;;4.55;;
4355;SDS011;64374;51.482;7.408;2023-09-18T05:10:24;14.05;;;5.03;;
4355;SDS011;64374;51.482;7.408;2023-09-18T05:12:53;14.02;;;4.68;;
4355;SDS011;64374;51.482;7.408;2023-09-18T05:15:27;11.13;;;4.70;;
4355;SDS011;64374;51.482;7.408;2023-09-18T05:17:57;11.68;;;4.20;;
4355;SDS011;64374;51.482;7.408;2023-09-18T05:20:27;9.85;;;4.60;;
4355;SDS011;64374;51.482;7.408;2023-09-18T05:23:15;16.48;;;5.10;;
4355;SDS011;64374;51.482;7.408;2023-09-18T05:26:03;11.77;;;5.30;;
4355;SDS011;64374;51.482;7.408;2023-09-18T05:28:50;13.60;;;4.78;;
4355;SDS011;64374;51.482;7.408;2023-09-18T05:31:40;12.38;;;4.20;;
4355;SDS011;64374;51.482;7.408;2023-09-18T05:34:27;12.80;;;4.50;;
4355;SDS011;64374;51.482;7.408;2023-09-18T05:37:14;12.65;;;5.10;;
4355;SDS011;64374;51.482;7.408;2023-09-18T05:40:00;12.13;;;4.60;;
4355;SDS011;64374;51.482;7.408;2023-09-18T05:42:47;13.05;;;4.88;;
4355;SDS011;64374;51.482;7.408;2023-09-18T05:45:36;10.40;;;4.25;;
4355;SDS011;64374;51.482;7.408;2023-09-18T05:48:24;13.80;;;4.50;;
4355;SDS011;64374;51.482;7.408;2023-09-18T05:51:18;13.82;;;4.72;;
4355;SDS011;64374;51.482;7.408;2023-09-18T05:54:05;12.90;;;4.13;;
4355;SDS011;64374;51.482;7.408;2023-09-18T05:56:54;10.10;;;4.40;;
4355;SDS011;64374;51.482;7.408;2023-09-18T05:59:41;10.77;;;4.50;;
4355;SDS011;64374;51.482;7.408;2023-09-18T06:02:29;10.93;;;4.70;;
4355;SDS011;64374;51.482;7.408;2023-09-18T06:05:19;13.48;;;4.25;;
4355;SDS011;64374;51.482;7.408;2023-09-18T06:08:07;8.83;;;4.10;;
4355;SDS011;64374;51.482;7.408;2023-09-18T06:10:54;13.38;;;4.32;;
4355;SDS011;64374;51.482;7.408;2023-09-18T06:13:41;12.70;;;4.15;;
4355;SDS011;64374;51.482;7.408;2023-09-18T06:16:28;12.10;;;4.60;;
4355;SDS011;64374;51.482;7.408;2023-09-18T06:19:14;9.93;;;4.55;;
4355;SDS011;64374;51.482;7.408;2023-09-18T06:22:04;9.35;;;3.85;;
4355;SDS011;64374;51.482;7.408;2023-09-18T06:24:52;10.35;;;4.60;;
4355;SDS011;64374;51.482;7.408;2023-09-18T06:27:39;9.98;;;4.05;;
4355;SDS011;64374;51.482;7.408;2023-09-18T06:30:26;9.32;;;3.92;;
4355;SDS011;64374;51.482;7.408;2023-09-18T06:33:15;9.60;;;4.18;;
4355;SDS011;64374;51.482;7.408;2023-09-18T06:36:01;11.73;;;4.10;;
4355;SDS011;64374;51.482;7.408;2023-09-18T06:38:49;8.82;;;3.80;;
4355;SDS011;64374;51.482;7.408;2023-09-18T06:41:36;10.70;;;4.03;;
4355;SDS011;64374;51.482;7.408;2023-09-18T06:44:23;12.10;;;3.90;;
4355;SDS011;64374;51.482;7.408;2023-09-18T06:47:10;9.18;;;3.33;;
4355;SDS011;64374;51.482;7.408;2023-09-18T06:49:56;13.65;;;4.45;;
4355;SDS011;64374;51.482;7.408;2023-09-18T06:52:45;8.50;;;4.00;;
4355;SDS011;64374;51.482;7.408;2023-09-18T06:55:34;8.35;;;3.72;;
4355;SDS011;64374;51.482;7.408;2023-09-18T06:58:20;9.18;;;4.10;;
4355;SDS011;64374;51.482;7.408;2023-09-18T07:01:07;9.30;;;3.90;;
4355;SDS011;64374;51.482;7.408;2023-09-18T07:03:55;9.88;;;3.60;;
4355;SDS011;64374;51.482;7.408;2023-09-18T07:06:42;7.18;;;3.88;;
4355;SDS011;64374;51.482;7.408;2023-09-18T07:09:29;11.55;;;4.00;;
4355;SDS011;64374;51.482;7.408;2023-09-18T07:12:17;11.13;;;3.88;;
4355;SDS011;64374;51.482;7.408;2023-09-18T07:15:04;6.95;;;2.90;;
4355;SDS011;64374;51.482;7.408;2023-09-18T07:17:52;8.30;;;3.10;;
4355;SDS011;64374;51.482;7.408;2023-09-18T07:20:39;8.38;;;2.90;;
4355;SDS011;64374;51.482;7.408;2023-09-18T07:23:26;10.97;;;3.47;;
4355;SDS011;64374;51.482;7.408;2023-09-18T07:26:12;7.72;;;3.10;;
4355;SDS011;64374;51.482;7.408;2023-09-18T07:29:00;9.77;;;3.65;;
4355;SDS011;64374;51.482;7.408;2023-09-18T07:31:48;6.40;;;3.28;;
4355;SDS011;64374;51.482;7.408;2023-09-18T07:34:37;7.83;;;3.30;;
4355;SDS011;64374;51.482;7.408;2023-09-18T07:37:23;9.10;;;3.25;;
4355;SDS011;64374;51.482;7.408;2023-09-18T07:40:10;6.03;;;2.90;;
4355;SDS011;64374;51.482;7.408;2023-09-18T07:42:57;7.80;;;2.72;;
4355;SDS011;64374;51.482;7.408;2023-09-18T07:45:45;3.95;;;2.50;;
4355;SDS011;64374;51.482;7.408;2023-09-18T07:48:31;5.60;;;2.85;;
4355;SDS011;64374;51.482;7.408;2023-09-18T07:51:19;6.20;;;2.77;;
4355;SDS011;64374;51.482;7.408;2023-09-18T07:54:06;11.70;;;3.15;;
4355;SDS011;64374;51.482;7.408;2023-09-18T07:56:53;6.47;;;2.72;;
4355;SDS011;64374;51.482;7.408;2023-09-18T07:59:39;9.10;;;3.00;;
4355;SDS011;64374;51.482;7.408;2023-09-18T08:02:29;6.78;;;3.28;;
4355;SDS011;64374;51.482;7.408;2023-09-18T08:05:16;9.18;;;3.55;;
4355;SDS011;64374;51.482;7.408;2023-09-18T08:08:04;7.25;;;3.05;;
4355;SDS011;64374;51.482;7.408;2023-09-18T08:10:51;6.20;;;3.10;;
4355;SDS011;64374;51.482;7.408;2023-09-18T08:13:38;7.05;;;3.00;;
4355;SDS011;64374;51.482;7.408;2023-09-18T08:16:25;6.95;;;3.05;;
4355;SDS011;64374;51.482;7.408;2023-09-18T08:19:16;7.57;;;3.30;;
4355;SDS011;64374;51.482;7.408;2023-09-18T08:22:04;7.07;;;2.80;;
4355;SDS011;64374;51.482;7.408;2023-09-18T08:24:51;4.68;;;2.40;;
4355;SDS011;64374;51.482;7.408;2023-09-18T08:27:40;5.93;;;2.43;;
4355;SDS011;64374;51.482;7.408;2023-09-18T08:30:29;7.18;;;3.00;;
4355;SDS011;64374;51.482;7.408;2023-09-18T08:33:16;7.07;;;2.80;;
4355;SDS011;64374;51.482;7.408;2023-09-18T08:36:04;7.07;;;2.35;;
4355;SDS011;64374;51.482;7.408;2023-09-18T08:38:51;6.88;;;2.60;;
4355;SDS011;64374;51.482;7.408;2023-09-18T08:41:41;3.80;;;2.30;;
4355;SDS011;64374;51.482;7.408;2023-09-18T08:44:29;4.50;;;2.60;;
4355;SDS011;64374;51.482;7.408;2023-09-18T08:47:16;8.20;;;2.67;;
4355;SDS011;64374;51.482;7.408;2023-09-18T08:50:04;4.28;;;2.28;;
4355;SDS011;64374;51.482;7.408;2023-09-18T08:52:54;8.80;;;2.90;;
4355;SDS011;64374;51.482;7.408;2023-09-18T08:55:42;6.25;;;2.58;;
4355;SDS011;64374;51.482;7.408;2023-09-18T08:58:29;3.85;;;2.38;;
4355;SDS011;64374;51.482;7.408;2023-09-18T09:01:18;6.88;;;2.47;;
4355;SDS011;64374;51.482;7.408;2023-09-18T09:04:06;5.03;;;2.60;;
4355;SDS011;64374;51.482;7.408;2023-09-18T09:06:52;5.10;;;2.55;;
4355;SDS011;64374;51.482;7.408;2023-09-18T09:09:44;4.70;;;2.40;;
4355;SDS011;64374;51.482;7.408;2023-09-18T09:12:46;6.60;;;2.40;;
4355;SDS011;64374;51.482;7.408;2023-09-18T09:15:43;4.55;;;2.40;;
4355;SDS011;64374;51.482;7.408;2023-09-18T09:18:31;3.95;;;2.00;;
4355;SDS011;64374;51.482;7.408;2023-09-18T09:21:19;5.45;;;2.40;;
4355;SDS011;64374;51.482;7.408;2023-09-18T09:24:05;3.50;;;2.10;;
4355;SDS011;64374;51.482;7.408;2023-09-18T09:26:58;5.50;;;2.70;;
4355;SDS011;64374;51.482;7.408;2023-09-18T09:29:51;5.50;;;2.15;;
4355;SDS011;64374;51.482;7.408;2023-09-18T09:32:45;4.03;;;2.45;;
4355;SDS011;64374;51.482;7.408;2023-09-18T09:35:36;9.53;;;2.50;;
4355;SDS011;64374;51.482;7.408;2023-09-18T09:38:28;8.00;;;2.55;;
4355;SDS011;64374;51.482;7.408;2023-09-18T09:41:19;4.57;;;2.00;;
4355;SDS011;64374;51.482;7.408;2023-09-18T09:44:08;9.25;;;2.75;;
4355;SDS011;64374;51.482;7.408;2023-09-18T09:46:56;8.13;;;2.80;;
4355;SDS011;64374;51.482;7.408;2023-09-18T09:49:46;7.60;;;2.00;;
4355;SDS011;64374;51.482;7.408;2023-09-18T09:52:33;4.70;;;2.17;;
4355;SDS011;64374;51.482;7.408;2023-09-18T09:55:24;3.28;;;1.83;;
4355;SDS011;64374;51.482;7.408;2023-09-18T09:58:13;4.07;;;2.00;;
4355;SDS011;64374;51.482;7.408;2023-09-18T10:01:02;3.63;;;2.30;;
4355;SDS011;64374;51.482;7.408;2023-09-18T10:03:55;4.78;;;1.98;;
4355;SDS011;64374;51.482;7.408;2023-09-18T10:06:44;6.40;;;2.33;;
4355;SDS011;64374;51.482;7.408;2023-09-18T10:09:36;5.67;;;2.07;;
4355;SDS011;64374;51.482;7.408;2023-09-18T10:12:28;3.67;;;2.20;;
4355;SDS011;64374;51.482;7.408;2023-09-18T10:15:18;6.00;;;2.13;;
4355;SDS011;64374;51.482;7.408;2023-09-18T10:18:15;2.80;;;2.00;;
4355;SDS011;64374;51.482;7.408;2023-09-18T10:21:06;5.97;;;2.08;;
4355;SDS011;64374;51.482;7.408;2023-09-18T10:24:09;5.88;;;2.20;;
4355;SDS011;64374;51.482;7.408;2023-09-18T10:27:01;5.20;;;1.90;;
4355;SDS011;64374;51.482;7.408;2023-09-18T10:29:50;2.22;;;1.88;;
4355;SDS011;64374;51.482;7.408;2023-09-18T10:32:39;4.93;;;1.80;;
4355;SDS011;64374;51.482;7.408;2023-09-18T10:35:28;7.57;;;2.50;;
4355;SDS011;64374;51.482;7.408;2023-09-18T10:38:15;3.90;;;1.95;;
4355;SDS011;64374;51.482;7.408;2023-09-18T10:41:08;5.80;;;2.15;;
4355;SDS011;64374;51.482;7.408;2023-09-18T10:43:58;3.30;;;1.98;;
4355;SDS011;64374;51.482;7.408;2023-09-18T10:46:46;3.75;;;1.90;;
4355;SDS011;64374;51.482;7.408;2023-09-18T10:49:33;2.20;;;1.80;;
4355;SDS011;64374;51.482;7.408;2023-09-18T10:52:22;3.10;;;2.35;;
4355;SDS011;64374;51.482;7.408;2023-09-18T10:55:10;6.00;;;2.15;;
4355;SDS011;64374;51.482;7.408;2023-09-18T10:57:58;2.25;;;1.90;;
4355;SDS011;64374;51.482;7.408;2023-09-18T11:00:45;3.17;;;2.00;;
4355;SDS011;64374;51.482;7.408;2023-09-18T11:03:33;4.55;;;1.92;;
4355;SDS011;64374;51.482;7.408;2023-09-18T11:06:20;3.05;;;2.05;;
4355;SDS011;64374;51.482;7.408;2023-09-18T11:09:13;3.55;;;1.90;;
4355;SDS011;64374;51.482;7.408;2023-09-18T11:12:06;5.50;;;2.08;;
4355;SDS011;64374;51.482;7.408;2023-09-18T11:14:56;4.20;;;1.80;;
4355;SDS011;64374;51.482;7.408;2023-09-18T11:17:44;3.58;;;2.00;;
4355;SDS011;64374;51.482;7.408;2023-09-18T11:20:30;2.60;;;1.80;;
4355;SDS011;64374;51.482;7.408;2023-09-18T11:23:17;2.67;;;1.42;;
4355;SDS011;64374;51.482;7.408;2023-09-18T11:26:05;3.60;;;1.90;;
4355;SDS011;64374;51.482;7.408;2023-09-18T11:28:53;3.15;;;1.70;;
4355;SDS011;64374;51.482;7.408;2023-09-18T11:31:43;3.67;;;2.00;;
4355;SDS011;64374;51.482;7.408;2023-09-18T11:34:31;5.68;;;1.75;;
4355;SDS011;64374;51.482;7.408;2023-09-18T11:37:20;6.10;;;1.87;;
4355;SDS011;64374;51.482;7.408;2023-09-18T11:43:20;5.18;;;2.20;;
4355;SDS011;64374;51.482;7.408;2023-09-18T11:46:11;3.72;;;1.90;;
4355;SDS011;64374;51.482;7.408;2023-09-18T11:49:03;3.63;;;1.80;;
4355;SDS011;64374;51.482;7.408;2023-09-18T11:51:51;2.70;;;1.53;;
4355;SDS011;64374;51.482;7.408;2023-09-18T11:54:39;3.95;;;1.98;;
4355;SDS011;64374;51.482;7.408;2023-09-18T11:57:26;2.40;;;1.88;;
4355;SDS011;64374;51.482;7.408;2023-09-18T12:00:19;3.90;;;1.90;;
4355;SDS011;64374;51.482;7.408;2023-09-18T12:03:14;2.95;;;1.60;;
4355;SDS011;64374;51.482;7.408;2023-09-18T12:06:10;3.50;;;1.80;;
4355;SDS011;64374;51.482;7.408;2023-09-18T12:08:58;3.28;;;1.70;;
4355;SDS011;64374;51.482;7.408;2023-09-18T12:11:45;4.20;;;1.60;;
4355;SDS011;64374;51.482;7.408;2023-09-18T12:14:34;3.10;;;1.87;;
4355;SDS011;64374;51.482;7.408;2023-09-18T12:17:21;3.40;;;1.70;;
4355;SDS011;64374;51.482;7.408;2023-09-18T12:20:14;6.35;;;1.80;;
4355;SDS011;64374;51.482;7.408;2023-09-18T12:23:03;3.97;;;1.70;;
4355;SDS011;64374;51.482;7.408;2023-09-18T12:25:56;4.63;;;1.90;;
4355;SDS011;64374;51.482;7.408;2023-09-18T12:28:45;3.65;;;1.90;;
4355;SDS011;64374;51.482;7.408;2023-09-18T12:31:31;3.40;;;1.80;;
4355;SDS011;64374;51.482;7.408;2023-09-18T12:34:19;2.63;;;1.90;;
4355;SDS011;64374;51.482;7.408;2023-09-18T12:37:08;3.00;;;1.70;;
4355;SDS011;64374;51.482;7.408;2023-09-18T12:39:55;2.67;;;1.80;;
4355;SDS011;64374;51.482;7.408;2023-09-18T12:42:43;4.80;;;2.10;;
4355;SDS011;64374;51.482;7.408;2023-09-18T12:45:30;4.30;;;2.28;;
4355;SDS011;64374;51.482;7.408;2023-09-18T12:48:16;7.15;;;2.42;;
4355;SDS011;64374;51.482;7.408;2023-09-18T12:51:07;8.48;;;2.70;;
4355;SDS011;64374;51.482;7.408;2023-09-18T12:53:58;7.03;;;2.60;;
4355;SDS011;64374;51.482;7.408;2023-09-18T12:56:46;4.18;;;2.30;;
4355;SDS011;64374;51.482;7.408;2023-09-18T12:59:33;2.90;;;2.25;;
4355;SDS011;64374;51.482;7.408;2023-09-18T13:02:21;3.80;;;2.20;;
4355;SDS011;64374;51.482;7.408;2023-09-18T13:05:17;4.30;;;2.00;;
4355;SDS011;64374;51.482;7.408;2023-09-18T13:08:07;5.63;;;2.22;;
4355;SDS011;64374;51.482;7.408;2023-09-18T13:10:57;6.18;;;2.53;;
4355;SDS011;64374;51.482;7.408;2023-09-18T13:13:56;8.27;;;2.20;;
4355;SDS011;64374;51.482;7.408;2023-09-18T13:16:43;4.30;;;2.20;;
4355;SDS011;64374;51.482;7.408;2023-09-18T13:19:33;4.30;;;2.20;;
4355;SDS011;64374;51.482;7.408;2023-09-18T13:22:23;3.75;;;2.03;;
4355;SDS011;64374;51.482;7.408;2023-09-18T13:25:12;1.95;;;1.70;;
4355;SDS011;64374;51.482;7.408;2023-09-18T13:28:06;2.70;;;1.83;;
4355;SDS011;64374;51.482;7.408;2023-09-18T13:30:54;6.00;;;2.00;;
4355;SDS011;64374;51.482;7.408;2023-09-18T13:33:22;4.43;;;2.23;;
4355;SDS011;64374;51.482;7.408;2023-09-18T13:35:52;3.08;;;2.00;;
4355;SDS011;64374;51.482;7.408;2023-09-18T13:38:22;4.80;;;2.30;;
4355;SDS011;64374;51.482;7.408;2023-09-18T13:40:55;7.57;;;2.10;;
4355;SDS011;64374;51.482;7.408;2023-09-18T13:43:23;2.70;;;1.80;;
4355;SDS011;64374;51.482;7.408;2023-09-18T13:45:53;4.60;;;1.90;;
4355;SDS011;64374;51.482;7.408;2023-09-18T13:48:26;4.57;;;1.60;;
4355;SDS011;64374;51.482;7.408;2023-09-18T13:50:55;4.20;;;1.70;;
4355;SDS011;64374;51.482;7.408;2023-09-18T13:53:23;2.30;;;1.60;;
4355;SDS011;64374;51.482;7.408;2023-09-18T13:55:53;5.72;;;1.90;;
4355;SDS011;64374;51.482;7.408;2023-09-18T13:58:23;1.80;;;1.70;;
4355;SDS011;64374;51.482;7.408;2023-09-18T14:00:51;3.10;;;1.95;;
4355;SDS011;64374;51.482;7.408;2023-09-18T14:03:19;7.57;;;2.00;;
4355;SDS011;64374;51.482;7.408;2023-09-18T14:05:48;3.05;;;1.80;;
4355;SDS011;64374;51.482;7.408;2023-09-18T14:08:17;2.20;;;1.67;;
4355;SDS011;64374;51.482;7.408;2023-09-18T14:10:45;5.00;;;2.20;;
4355;SDS011;64374;51.482;7.408;2023-09-18T14:13:34;2.85;;;1.70;;
4355;SDS011;64374;51.482;7.408;2023-09-18T14:16:21;3.50;;;2.00;;
4355;SDS011;64374;51.482;7.408;2023-09-18T14:19:10;2.00;;;1.80;;
4355;SDS011;64374;51.482;7.408;2023-09-18T14:21:57;2.00;;;1.80;;
4355;SDS011;64374;51.482;7.408;2023-09-18T14:24:48;2.72;;;1.80;;
4355;SDS011;64374;51.482;7.408;2023-09-18T14:27:38;2.45;;;2.00;;
4355;SDS011;64374;51.482;7.408;2023-09-18T14:30:26;2.63;;;2.00;;
4355;SDS011;64374;51.482;7.408;2023-09-18T14:33:16;2.77;;;1.60;;
4355;SDS011;64374;51.482;7.408;2023-09-18T14:36:03;2.20;;;1.60;;
4355;SDS011;64374;51.482;7.408;2023-09-18T14:38:52;3.70;;;1.90;;
4355;SDS011;64374;51.482;7.408;2023-09-18T14:41:40;3.70;;;1.95;;
4355;SDS011;64374;51.482;7.408;2023-09-18T14:44:27;4.60;;;1.90;;
4355;SDS011;64374;51.482;7.408;2023-09-18T14:47:16;3.45;;;1.60;;
4355;SDS011;64374;51.482;7.408;2023-09-18T14:50:08;2.80;;;1.90;;
4355;SDS011;64374;51.482;7.408;2023-09-18T14:52:55;3.60;;;1.90;;
4355;SDS011;64374;51.482;7.408;2023-09-18T14:55:42;3.25;;;1.77;;
4355;SDS011;64374;51.482;7.408;2023-09-18T14:58:29;5.18;;;1.80;;
4355;SDS011;64374;51.482;7.408;2023-09-18T15:01:15;2.95;;;1.60;;
4355;SDS011;64374;51.482;7.408;2023-09-18T15:04:04;4.25;;;1.70;;
4355;SDS011;64374;51.482;7.408;2023-09-18T15:06:51;4.22;;;1.80;;
4355;SDS011;64374;51.482;7.408;2023-09-18T15:09:38;3.80;;;1.90;;
4355;SDS011;64374;51.482;7.408;2023-09-18T15:12:25;3.30;;;1.40;;
4355;SDS011;64374;51.482;7.408;2023-09-18T15:15:12;3.00;;;1.80;;
4355;SDS011;64374;51.482;7.408;2023-09-18T15:17:58;2.05;;;1.70;;
4355;SDS011;64374;51.482;7.408;2023-09-18T15:20:47;4.30;;;1.70;;
4355;SDS011;64374;51.482;7.408;2023-09-18T15:23:38;3.20;;;2.90;;
4355;SDS011;64374;51.482;7.408;2023-09-18T15:26:07;6.63;;;1.70;;
4355;SDS011;64374;51.482;7.408;2023-09-18T15:28:35;3.70;;;1.50;;
4355;SDS011;64374;51.482;7.408;2023-09-18T15:31:03;3.70;;;2.00;;
4355;SDS011;64374;51.482;7.408;2023-09-18T15:33:32;4.55;;;2.15;;
4355;SDS011;64374;51.482;7.408;2023-09-18T15:36:01;3.83;;;2.47;;
4355;SDS011;64374;51.482;7.408;2023-09-18T15:38:30;3.73;;;2.13;;
4355;SDS011;64374;51.482;7.408;2023-09-18T15:40:58;2.47;;;2.22;;
4355;SDS011;64374;51.482;7.408;2023-09-18T15:43:26;3.30;;;2.00;;
4355;SDS011;64374;51.482;7.408;2023-09-18T15:45:55;3.55;;;1.85;;
4355;SDS011;64374;51.482;7.408;2023-09-18T15:48:26;4.50;;;1.75;;
4355;SDS011;64374;51.482;7.408;2023-09-18T15:50:55;4.80;;;1.80;;
4355;SDS011;64374;51.482;7.408;2023-09-18T15:53:24;2.42;;;1.88;;
4355;SDS011;64374;51.482;7.408;2023-09-18T15:55:54;3.80;;;1.77;;
4355;SDS011;64374;51.482;7.408;2023-09-18T15:58:22;2.60;;;1.80;;
4355;SDS011;64374;51.482;7.408;2023-09-18T16:01:09;2.60;;;2.40;;
4355;SDS011;64374;51.482;7.408;2023-09-18T16:03:59;4.40;;;1.77;;
4355;SDS011;64374;51.482;7.408;2023-09-18T16:06:46;5.95;;;1.80;;
4355;SDS011;64374;51.482;7.408;2023-09-18T16:09:36;2.40;;;1.90;;
4355;SDS011;64374;51.482;7.408;2023-09-18T16:12:23;3.30;;;2.00;;
4355;SDS011;64374;51.482;7.408;2023-09-18T16:15:09;4.75;;;2.60;;
4355;SDS011;64374;51.482;7.408;2023-09-18T16:17:56;2.53;;;2.10;;
4355;SDS011;64374;51.482;7.408;2023-09-18T16:20:43;3.42;;;2.38;;
4355;SDS011;64374;51.482;7.408;2023-09-18T16:23:29;3.97;;;2.30;;
4355;SDS011;64374;51.482;7.408;2023-09-18T16:26:17;4.80;;;2.40;;
4355;SDS011;64374;51.482;7.408;2023-09-18T16:29:05;2.53;;;2.00;;
4355;SDS011;64374;51.482;7.408;2023-09-18T16:31:52;2.30;;;1.80;;
4355;SDS011;64374;51.482;7.408;2023-09-18T16:34:39;3.85;;;2.10;;
4355;SDS011;64374;51.482;7.408;2023-09-18T16:37:28;4.05;;;2.25;;
4355;SDS011;64374;51.482;7.408;2023-09-18T16:40:15;3.10;;;1.90;;
4355;SDS011;64374;51.482;7.408;2023-09-18T16:43:06;5.18;;;2.15;;
4355;SDS011;64374;51.482;7.408;2023-09-18T16:45:55;3.10;;;2.10;;
4355;SDS011;64374;51.482;7.408;2023-09-18T16:48:42;2.63;;;2.20;;
4355;SDS011;64374;51.482;7.408;2023-09-18T16:51:29;3.85;;;1.98;;